Date,TemperatureHighF,TemperatureAvgF,TemperatureLowF,DewpointHighF,DewpointAvgF,DewpointLowF,HumidityHigh,HumidityAvg,HumidityLow,PressureMaxIn,PressureMinIn,WindSpeedMaxMPH,WindSpeedAvgMPH,GustSpeedMaxMPH,PrecipitationSumIn
2013-8-1,88,74,60,67,62,54,97,71,33,30.08,29.89,5,0,10,0.00
2013-8-2,82,72,66,68,63,57,90,74,52,30.01,29.88,9,1,16,0.00
2013-8-3,79,70,62,61,57,51,84,64,41,30.18,30.01,7,0,12,0.00
2013-8-4,82,71,56,60,58,54,95,66,44,30.19,30.04,5,0,14,0.00
2013-8-5,82,73,64,72,67,59,92,81,64,30.04,29.78,5,0,10,0.00
2013-8-6,90,77,68,73,69,66,97,80,51,29.89,29.75,4,0,12,0.00
2013-8-7,81,74,68,68,65,61,96,74,54,30.00,29.78,9,1,16,0.00
2013-8-8,80,71,60,63,60,56,87,70,48,30.02,29.95,5,0,9,0.00
2013-8-9,81,72,62,68,62,54,92,71,44,30.14,30.00,8,1,14,0.00
2013-8-10,84,71,57,63,59,53,95,69,44,30.21,30.08,5,0,9,0.00
2013-8-11,86,75,63,68,63,58,87,68,46,30.12,29.97,6,0,14,0.00
2013-8-12,82,72,66,68,63,54,98,74,44,30.05,29.97,8,1,14,0.46
2013-8-13,78,68,58,61,56,51,94,69,42,30.18,30.05,5,0,12,0.00
2013-8-14,76,66,54,54,52,47,91,63,39,30.24,30.12,5,0,8,0.00
2013-8-15,73,65,59,59,55,51,86,70,53,30.17,30.10,7,0,12,0.00
2013-8-16,78,66,54,59,55,52,94,70,51,30.22,30.14,4,0,9,0.00
2013-8-17,82,69,56,58,56,52,94,66,39,30.23,30.12,4,0,10,0.00
2013-8-18,83,70,58,61,58,55,90,68,42,30.18,30.06,3,0,9,0.00
2013-8-19,86,72,61,67,63,58,90,73,49,30.09,29.97,6,0,13,0.00
2013-8-20,90,78,68,71,66,62,83,67,47,30.00,29.91,6,0,17,0.00
2013-8-21,93,81,71,71,68,66,86,67,42,29.99,29.93,7,0,14,0.00
2013-8-22,82,75,70,70,68,67,93,79,65,30.08,29.97,4,0,8,0.00
2013-8-23,88,77,68,74,70,66,95,80,61,30.10,30.00,4,0,8,0.00
2013-8-24,93,80,71,74,70,68,90,71,49,30.12,30.02,8,0,15,0.00
2013-8-25,95,82,72,73,68,65,81,65,42,30.14,30.03,5,1,15,0.00
2013-8-26,98,83,72,74,70,66,91,67,39,30.08,29.95,5,0,10,0.00
2013-8-27,98,85,76,74,64,52,72,49,43,29.94,29.84,6,1,15,0.00
2013-8-28,98,84,72,70,67,63,81,59,35,29.97,29.89,4,0,7,0.00
2013-8-29,94,82,71,74,71,67,89,69,46,30.01,29.89,3,0,10,0.00
2013-8-30,102,85,71,76,71,64,94,67,30,29.89,29.74,6,0,16,0.00
2013-8-31,91,79,68,72,68,62,93,70,40,29.83,29.74,4,0,9,0.00